Time;durP1;ratioP1;P1;durP2;ratioP2;P2;SDS_P1;SDS_P2;PMS_P1;PMS_P2;Temp;Humidity;BMP_temperature;BMP_pressure;BME280_temperature;BME280_humidity;BME280_pressure;Samples;Min_cycle;Max_cycle;Signal;HPM_P1;HPM_P2
2022/01/02 00:00:10;;;;;;;0.80;0.80;;;0.20;99.90;;;;;;5057031;28;20201;-77
2022/01/02 00:02:37;;;;;;;0.68;0.68;;;0.20;99.90;;;;;;5063913;28;20629;-77
2022/01/02 00:05:08;;;;;;;0.77;0.77;;;0.30;99.90;;;;;;5065599;28;20664;-77
2022/01/02 00:07:40;;;;;;;1.25;1.15;;;0.30;99.90;;;;;;5061709;28;20200;-76
2022/01/02 00:10:07;;;;;;;0.60;0.60;;;0.30;99.90;;;;;;5057831;28;20221;-76
2022/01/02 00:12:34;;;;;;;0.60;0.60;;;0.20;99.90;;;;;;5071816;28;20207;-76
2022/01/02 00:15:04;;;;;;;0.70;0.70;;;0.20;99.90;;;;;;5071073;28;20204;-76
2022/01/02 00:17:30;;;;;;;0.80;0.80;;;0.20;99.90;;;;;;5064477;28;20574;-76
2022/01/02 00:20:03;;;;;;;0.60;0.60;;;0.20;99.90;;;;;;5070865;28;20255;-75
2022/01/02 00:22:34;;;;;;;0.80;0.80;;;0.20;99.90;;;;;;5071591;28;20197;-76
2022/01/02 00:25:04;;;;;;;0.70;0.70;;;0.20;99.90;;;;;;5072042;28;20203;-76
2022/01/02 00:27:31;;;;;;;0.80;0.80;;;0.30;99.90;;;;;;5053868;28;20200;-76
2022/01/02 00:29:58;;;;;;;0.70;0.70;;;0.30;99.90;;;;;;5052942;28;20291;-76
2022/01/02 00:32:24;;;;;;;0.70;0.70;;;0.20;99.90;;;;;;5070451;28;20201;-76
2022/01/02 00:34:54;;;;;;;0.57;0.57;;;0.30;99.90;;;;;;5070687;28;20212;-76
2022/01/02 00:37:19;;;;;;;0.52;0.52;;;0.30;99.90;;;;;;5070599;28;20205;-77
2022/01/02 00:39:45;;;;;;;0.70;0.70;;;0.30;99.90;;;;;;5070625;28;20579;-76
2022/01/02 00:42:33;;;;;;;0.65;0.65;;;0.30;99.90;;;;;;5052776;28;20204;-77
2022/01/02 00:45:09;;;;;;;0.70;0.70;;;0.30;99.90;;;;;;5054123;28;20765;-76
2022/01/02 00:47:56;;;;;;;0.57;0.57;;;0.30;99.90;;;;;;5052347;28;20200;-76
2022/01/02 00:50:30;;;;;;;0.60;0.60;;;0.30;99.90;;;;;;5052679;28;20205;-76
2022/01/02 00:52:58;;;;;;;0.60;0.60;;;0.30;99.90;;;;;;5039010;28;20207;-76
2022/01/02 00:55:25;;;;;;;0.70;0.70;;;0.30;99.90;;;;;;5052321;28;20213;-76
2022/01/02 00:57:57;;;;;;;0.77;0.77;;;0.30;99.90;;;;;;5062117;28;20189;-76
2022/01/02 01:00:23;;;;;;;0.70;0.70;;;0.30;99.90;;;;;;5051981;28;20201;-76
2022/01/02 01:02:54;;;;;;;0.65;0.65;;;0.30;99.90;;;;;;5071277;28;20197;-76
2022/01/02 01:05:25;;;;;;;0.60;0.60;;;0.30;99.90;;;;;;5054063;28;20247;-76
2022/01/02 01:07:54;;;;;;;0.70;0.70;;;0.30;99.90;;;;;;5070624;28;20201;-76
2022/01/02 01:10:22;;;;;;;0.70;0.70;;;0.30;99.90;;;;;;5070304;28;20664;-77
2022/01/02 01:12:53;;;;;;;0.60;0.60;;;0.30;99.90;;;;;;5071074;28;20234;-76
2022/01/02 01:15:21;;;;;;;0.63;0.63;;;0.30;99.90;;;;;;5085872;28;20213;-76
2022/01/02 01:17:48;;;;;;;0.70;0.70;;;0.30;99.90;;;;;;5071438;28;20223;-76
2022/01/02 01:20:14;;;;;;;0.60;0.60;;;0.30;99.90;;;;;;5070661;28;20220;-76
2022/01/02 01:22:44;;;;;;;0.60;0.60;;;0.30;99.90;;;;;;5052129;28;20201;-76
2022/01/02 01:25:15;;;;;;;0.70;0.70;;;0.30;99.90;;;;;;5070050;28;20236;-76
2022/01/02 01:27:41;;;;;;;0.70;0.70;;;0.30;99.90;;;;;;5070987;28;20721;-76
2022/01/02 01:30:08;;;;;;;0.70;0.70;;;0.30;99.90;;;;;;5071259;28;20204;-76
2022/01/02 01:32:34;;;;;;;0.70;0.70;;;0.30;99.90;;;;;;5053013;28;20204;-76
2022/01/02 01:35:02;;;;;;;0.60;0.60;;;0.30;99.90;;;;;;5053154;28;20209;-77
2022/01/02 01:37:28;;;;;;;0.60;0.60;;;0.40;99.90;;;;;;5069985;28;20664;-76
2022/01/02 01:39:54;;;;;;;0.60;0.60;;;0.40;99.90;;;;;;5071082;28;20220;-77
2022/01/02 01:42:30;;;;;;;0.60;0.60;;;0.40;99.90;;;;;;5054167;28;20579;-77
2022/01/02 01:47:28;;;;;;;0.50;0.50;;;0.30;99.90;;;;;;5069946;28;20702;-77
2022/01/02 01:49:54;;;;;;;0.52;0.52;;;0.30;99.90;;;;;;5052326;28;20197;-77
2022/01/02 01:52:19;;;;;;;0.70;0.70;;;0.30;99.90;;;;;;5070183;28;20624;-76
2022/01/02 01:54:45;;;;;;;0.68;0.68;;;0.30;99.90;;;;;;5070547;28;20239;-77
2022/01/02 01:57:11;;;;;;;0.55;0.55;;;0.30;99.90;;;;;;5053276;28;20600;-77
2022/01/02 01:59:36;;;;;;;0.60;0.60;;;0.30;99.90;;;;;;5054007;28;20200;-77
2022/01/02 02:02:02;;;;;;;0.80;0.80;;;0.30;99.90;;;;;;5052636;28;20196;-76
2022/01/02 02:04:28;;;;;;;0.50;0.50;;;0.30;99.90;;;;;;5085227;28;20652;-76
2022/01/02 02:06:56;;;;;;;0.60;0.60;;;0.30;99.90;;;;;;5070314;28;20231;-76
2022/01/02 02:09:28;;;;;;;0.70;0.70;;;0.30;99.90;;;;;;5071869;28;20209;-78
2022/01/02 02:11:59;;;;;;;0.60;0.60;;;0.30;99.90;;;;;;5057174;28;20212;-76
2022/01/02 02:14:25;;;;;;;0.52;0.52;;;0.30;99.90;;;;;;5073329;28;20220;-76
2022/01/02 02:16:51;;;;;;;0.60;0.60;;;0.30;99.90;;;;;;5057346;28;20679;-77
2022/01/02 02:19:17;;;;;;;0.70;0.70;;;0.30;99.90;;;;;;5056706;28;20204;-77
2022/01/02 02:21:43;;;;;;;0.70;0.70;;;0.30;99.90;;;;;;5073761;28;20197;-76
2022/01/02 02:24:09;;;;;;;0.57;0.57;;;0.30;99.90;;;;;;5056578;28;20215;-77
2022/01/02 02:26:37;;;;;;;0.60;0.60;;;0.40;99.90;;;;;;5056216;28;20568;-76
2022/01/02 02:29:05;;;;;;;0.60;0.60;;;0.40;99.90;;;;;;5073059;28;20539;-76
2022/01/02 02:31:31;;;;;;;0.50;0.50;;;0.40;99.90;;;;;;5074131;28;20276;-76
2022/01/02 02:33:56;;;;;;;0.60;0.60;;;0.40;99.90;;;;;;5072994;28;20546;-76
2022/01/02 02:36:22;;;;;;;0.70;0.70;;;0.50;99.90;;;;;;5087498;28;20207;-77
2022/01/02 02:38:48;;;;;;;0.70;0.70;;;0.50;99.90;;;;;;5072784;28;20224;-76
2022/01/02 02:41:14;;;;;;;0.68;0.68;;;0.50;99.90;;;;;;5072979;28;20215;-76
2022/01/02 02:43:56;;;;;;;0.60;0.60;;;0.60;99.90;;;;;;5078157;28;20233;-76
2022/01/02 02:49:06;;;;;;;0.65;0.65;;;0.60;99.90;;;;;;5073891;28;20215;-76
2022/01/02 02:54:27;;;;;;;0.70;0.70;;;0.60;99.90;;;;;;5072772;28;20698;-77
2022/01/02 02:59:19;;;;;;;0.65;0.65;;;0.60;99.90;;;;;;5073854;28;20690;-76
2022/01/02 03:01:45;;;;;;;0.50;0.50;;;0.50;99.90;;;;;;5054800;28;20197;-76
2022/01/02 03:04:11;;;;;;;0.60;0.60;;;0.60;99.90;;;;;;5072793;28;20211;-76
2022/01/02 03:06:37;;;;;;;0.80;0.80;;;0.60;99.90;;;;;;5055650;28;20200;-76
2022/01/02 03:09:08;;;;;;;0.80;0.80;;;0.60;99.90;;;;;;5073689;28;20246;-76
2022/01/02 03:11:36;;;;;;;0.80;0.80;;;0.70;99.90;;;;;;5072351;28;20197;-75
2022/01/02 03:14:03;;;;;;;0.70;0.70;;;0.70;99.90;;;;;;5072220;28;20212;-76
2022/01/02 03:16:28;;;;;;;0.70;0.70;;;0.70;99.90;;;;;;5071495;28;20249;-76
2022/01/02 03:18:54;;;;;;;0.63;0.63;;;0.70;99.90;;;;;;5055721;28;20684;-76
2022/01/02 03:21:21;;;;;;;0.60;0.60;;;0.60;99.90;;;;;;5072524;28;20201;-76
2022/01/02 03:23:47;;;;;;;0.70;0.70;;;0.50;99.90;;;;;;5072771;28;20291;-76
2022/01/02 03:26:12;;;;;;;0.65;0.65;;;0.50;99.90;;;;;;5042533;28;20316;-76
2022/01/02 03:28:38;;;;;;;0.55;0.55;;;0.50;99.90;;;;;;5049623;28;20747;-76
2022/01/02 03:31:04;;;;;;;0.50;0.50;;;0.40;99.90;;;;;;5056035;28;20207;-75
2022/01/02 03:33:29;;;;;;;0.60;0.60;;;0.40;99.90;;;;;;5072722;28;20217;-77
2022/01/02 03:35:55;;;;;;;0.70;0.70;;;0.40;99.90;;;;;;5054997;28;20208;-77
2022/01/02 03:38:21;;;;;;;0.60;0.60;;;0.40;99.90;;;;;;5055538;28;20308;-77
2022/01/02 03:40:47;;;;;;;0.60;0.60;;;0.40;99.90;;;;;;5071961;28;20197;-77
2022/01/02 03:43:12;;;;;;;0.60;0.60;;;0.40;99.90;;;;;;5071687;28;20201;-76
2022/01/02 03:45:38;;;;;;;0.60;0.60;;;0.40;99.90;;;;;;5039209;28;20232;-76
2022/01/02 03:48:04;;;;;;;0.60;0.60;;;0.30;99.90;;;;;;5070659;28;20759;-77
2022/01/02 03:50:30;;;;;;;0.50;0.50;;;0.30;99.90;;;;;;5071543;28;20224;-76
2022/01/02 03:52:56;;;;;;;0.60;0.60;;;0.30;99.90;;;;;;5072847;28;20201;-77
2022/01/02 03:55:22;;;;;;;0.60;0.60;;;0.30;99.90;;;;;;5054069;28;20212;-76
2022/01/02 03:57:48;;;;;;;0.50;0.50;;;0.40;99.90;;;;;;5044954;28;20259;-77
2022/01/02 04:00:15;;;;;;;0.70;0.70;;;0.30;99.90;;;;;;5072829;28;20196;-76
2022/01/02 04:02:41;;;;;;;0.63;0.63;;;0.30;99.90;;;;;;5071237;28;20196;-76
2022/01/02 04:05:08;;;;;;;0.70;0.70;;;0.30;99.90;;;;;;5072738;28;20667;-76
2022/01/02 04:07:34;;;;;;;0.60;0.60;;;0.30;99.90;;;;;;5054637;28;20299;-77
2022/01/02 04:10:04;;;;;;;0.60;0.60;;;0.30;99.90;;;;;;5054654;28;20291;-76
2022/01/02 04:12:30;;;;;;;0.60;0.60;;;0.30;99.90;;;;;;5053361;28;20230;-76
2022/01/02 04:14:56;;;;;;;0.60;0.60;;;0.40;99.90;;;;;;5071284;28;20205;-76
2022/01/02 04:17:23;;;;;;;0.60;0.60;;;0.30;99.90;;;;;;5087554;28;20567;-75
2022/01/02 04:19:49;;;;;;;0.73;0.73;;;0.40;99.90;;;;;;5086604;28;20300;-76
2022/01/02 04:22:15;;;;;;;0.57;0.57;;;0.40;99.90;;;;;;5071702;28;20562;-76
2022/01/02 04:24:41;;;;;;;0.73;0.73;;;0.40;99.90;;;;;;5071719;28;20208;-76
2022/01/02 04:27:07;;;;;;;0.70;0.70;;;0.30;99.90;;;;;;5072069;28;20212;-75
2022/01/02 04:29:32;;;;;;;0.60;0.60;;;0.30;99.90;;;;;;5071837;28;20219;-76
2022/01/02 04:31:58;;;;;;;0.65;0.65;;;0.40;99.90;;;;;;5053368;28;20211;-76
2022/01/02 04:34:23;;;;;;;0.70;0.70;;;0.40;99.90;;;;;;5084948;28;20216;-76
2022/01/02 04:36:49;;;;;;;0.60;0.60;;;0.40;99.90;;;;;;5070976;28;20201;-75
2022/01/02 04:39:15;;;;;;;0.60;0.60;;;0.40;99.90;;;;;;5070813;28;20216;-75
2022/01/02 04:41:41;;;;;;;0.50;0.50;;;0.40;99.90;;;;;;5070678;28;20197;-75
2022/01/02 04:44:06;;;;;;;0.50;0.50;;;0.40;99.90;;;;;;5070816;28;20234;-75
2022/01/02 04:46:32;;;;;;;0.50;0.50;;;0.40;99.90;;;;;;5071788;28;20288;-76
2022/01/02 04:48:58;;;;;;;0.70;0.70;;;0.40;99.90;;;;;;5070757;28;20207;-76
2022/01/02 04:51:24;;;;;;;0.75;0.75;;;0.40;99.90;;;;;;5052259;28;20284;-76
2022/01/02 04:53:49;;;;;;;0.60;0.60;;;0.40;99.90;;;;;;5070588;28;20684;-76
2022/01/02 04:56:16;;;;;;;0.50;0.50;;;0.40;99.90;;;;;;5052740;28;20259;-77
2022/01/02 04:58:42;;;;;;;0.55;0.55;;;0.50;99.90;;;;;;5071864;28;20228;-75
2022/01/02 05:01:11;;;;;;;0.70;0.70;;;0.50;99.90;;;;;;5071727;28;20236;-76
2022/01/02 05:03:38;;;;;;;0.70;0.70;;;0.50;99.90;;;;;;5071698;28;20265;-76
2022/01/02 05:06:04;;;;;;;0.60;0.60;;;0.50;99.90;;;;;;5070736;28;20197;-76
2022/01/02 05:08:30;;;;;;;0.95;0.95;;;0.50;99.90;;;;;;5071709;28;20196;-76
2022/01/02 05:10:56;;;;;;;0.70;0.70;;;0.50;99.90;;;;;;5070630;28;20208;-76
2022/01/02 05:13:21;;;;;;;0.70;0.70;;;0.50;99.90;;;;;;5054389;28;20208;-77
2022/01/02 05:15:47;;;;;;;0.70;0.70;;;0.50;99.90;;;;;;5053867;28;20293;-75
2022/01/02 05:18:13;;;;;;;0.70;0.70;;;0.50;99.90;;;;;;5084685;28;20220;-75
2022/01/02 05:20:39;;;;;;;0.68;0.68;;;0.50;99.90;;;;;;5071631;28;20663;-74
2022/01/02 05:23:05;;;;;;;0.60;0.60;;;0.60;99.90;;;;;;5052049;28;20224;-74
2022/01/02 05:25:31;;;;;;;0.68;0.68;;;0.60;99.90;;;;;;5070134;28;20222;-74
2022/01/02 05:27:56;;;;;;;0.60;0.60;;;0.60;99.90;;;;;;5070348;28;20251;-75
2022/01/02 05:30:22;;;;;;;0.60;0.60;;;0.60;99.90;;;;;;5070520;28;20208;-75
2022/01/02 05:32:48;;;;;;;0.60;0.60;;;0.70;99.90;;;;;;5070430;28;20200;-76
2022/01/02 05:35:13;;;;;;;0.60;0.60;;;1.00;99.90;;;;;;5060692;28;20213;-76
2022/01/02 05:37:39;;;;;;;0.50;0.50;;;1.00;99.90;;;;;;5063851;28;20203;-76
2022/01/02 05:40:05;;;;;;;0.60;0.60;;;0.90;99.90;;;;;;5062923;28;20222;-75
2022/01/02 05:42:31;;;;;;;0.60;0.60;;;0.80;99.90;;;;;;5044349;28;20197;-76
2022/01/02 05:44:56;;;;;;;0.60;0.60;;;0.80;99.90;;;;;;5074735;28;20230;-76
2022/01/02 05:47:22;;;;;;;0.50;0.50;;;0.80;99.90;;;;;;5073736;28;20201;-76
2022/01/02 05:49:48;;;;;;;0.70;0.70;;;0.80;99.90;;;;;;5075018;28;20624;-76
2022/01/02 05:52:13;;;;;;;0.60;0.60;;;0.70;99.90;;;;;;5075154;28;20664;-76
2022/01/02 05:54:39;;;;;;;0.70;0.70;;;0.80;99.90;;;;;;5074741;28;20219;-76
2022/01/02 05:57:05;;;;;;;0.60;0.60;;;0.90;99.90;;;;;;5074752;28;20199;-76
2022/01/02 05:59:30;;;;;;;0.70;0.70;;;1.00;99.90;;;;;;5074791;28;20189;-76
2022/01/02 06:01:56;;;;;;;0.70;0.70;;;1.00;99.90;;;;;;5074847;28;20605;-76
2022/01/02 06:04:22;;;;;;;0.52;0.52;;;0.90;99.90;;;;;;5074551;28;20234;-76
2022/01/02 06:06:47;;;;;;;0.60;0.60;;;0.90;99.90;;;;;;5071370;28;20204;-75
2022/01/02 06:09:13;;;;;;;0.60;0.60;;;0.90;99.90;;;;;;5041715;28;20230;-76
2022/01/02 06:11:39;;;;;;;0.60;0.60;;;0.90;99.90;;;;;;5074258;28;20205;-77
2022/01/02 06:14:04;;;;;;;0.60;0.60;;;0.90;99.90;;;;;;5073398;28;20205;-76
2022/01/02 06:16:31;;;;;;;0.68;0.68;;;0.90;99.90;;;;;;5055760;28;20193;-75
2022/01/02 06:18:57;;;;;;;0.65;0.65;;;0.90;99.90;;;;;;5056437;28;20709;-75
2022/01/02 06:21:23;;;;;;;0.75;0.75;;;0.90;99.90;;;;;;5055458;28;20207;-75
2022/01/02 06:23:49;;;;;;;0.60;0.60;;;0.90;99.90;;;;;;5074734;28;20544;-76
2022/01/02 06:26:14;;;;;;;0.60;0.60;;;1.00;99.90;;;;;;5057368;28;20250;-77
2022/01/02 06:28:40;;;;;;;0.60;0.60;;;1.00;99.90;;;;;;5054965;28;20204;-76
2022/01/02 06:31:06;;;;;;;0.60;0.60;;;1.00;99.90;;;;;;5074524;28;20209;-76
2022/01/02 06:33:31;;;;;;;0.60;0.60;;;0.90;99.90;;;;;;5073785;28;20666;-76
2022/01/02 06:35:57;;;;;;;0.60;0.60;;;0.90;99.90;;;;;;5074225;28;20299;-75
2022/01/02 06:38:23;;;;;;;0.60;0.60;;;1.00;99.90;;;;;;5054841;28;20298;-75
2022/01/02 06:40:49;;;;;;;0.65;0.65;;;1.00;99.90;;;;;;5072810;28;20201;-76
2022/01/02 06:43:16;;;;;;;0.70;0.70;;;1.00;99.90;;;;;;5056037;28;20255;-76
2022/01/02 06:45:45;;;;;;;0.50;0.50;;;1.00;99.90;;;;;;5054591;28;20208;-76
2022/01/02 06:48:11;;;;;;;0.65;0.65;;;0.90;99.90;;;;;;5054665;28;20235;-76
2022/01/02 06:50:37;;;;;;;0.60;0.60;;;1.00;99.90;;;;;;5073687;28;20232;-75
2022/01/02 06:53:03;;;;;;;0.60;0.60;;;1.00;99.90;;;;;;5088081;28;20245;-75
2022/01/02 06:55:28;;;;;;;0.70;0.70;;;1.00;99.90;;;;;;5054033;28;20197;-76
2022/01/02 06:57:54;;;;;;;0.60;0.60;;;1.00;99.90;;;;;;5068926;28;20203;-76
2022/01/02 07:00:20;;;;;;;0.60;0.60;;;1.00;99.90;;;;;;5073700;28;20265;-76
2022/01/02 07:02:45;;;;;;;0.50;0.50;;;1.00;99.90;;;;;;5055994;28;20197;-76
2022/01/02 07:05:11;;;;;;;0.70;0.70;;;1.00;99.90;;;;;;5072791;28;20311;-75
2022/01/02 07:07:44;;;;;;;0.70;0.70;;;1.00;99.90;;;;;;5073440;28;20205;-76
2022/01/02 07:10:11;;;;;;;0.60;0.60;;;1.00;99.90;;;;;;5072864;28;20212;-76
2022/01/02 07:12:37;;;;;;;0.90;0.90;;;1.00;99.90;;;;;;5070833;28;20201;-75
2022/01/02 07:15:04;;;;;;;0.45;0.45;;;1.00;99.90;;;;;;5058266;28;20343;-76
2022/01/02 07:17:30;;;;;;;0.63;0.63;;;1.00;99.90;;;;;;5054778;28;20180;-76
2022/01/02 07:19:56;;;;;;;0.50;0.50;;;1.00;99.90;;;;;;5058384;28;20558;-75
2022/01/02 07:22:21;;;;;;;0.63;0.63;;;1.20;99.90;;;;;;5071803;28;20209;-75
2022/01/02 07:24:51;;;;;;;0.50;0.50;;;1.20;99.90;;;;;;5072335;28;20201;-76
2022/01/02 07:27:18;;;;;;;0.60;0.60;;;1.20;99.90;;;;;;5071992;28;20718;-76
2022/01/02 07:29:43;;;;;;;0.68;0.68;;;1.20;99.90;;;;;;5038504;28;20288;-78
2022/01/02 07:32:10;;;;;;;0.98;0.95;;;1.10;99.90;;;;;;5054748;28;20228;-74
2022/01/02 07:35:30;;;;;;;0.57;0.57;;;1.20;99.90;;;;;;5054214;28;20212;-75
2022/01/02 07:38:28;;;;;;;0.60;0.60;;;1.20;99.90;;;;;;5012987;28;20753;-75
2022/01/02 07:40:53;;;;;;;0.77;0.77;;;1.30;99.90;;;;;;5033118;28;20210;-75
2022/01/02 07:43:19;;;;;;;0.60;0.60;;;1.30;99.90;;;;;;5033034;28;20210;-77
2022/01/02 07:45:45;;;;;;;0.60;0.60;;;1.20;99.90;;;;;;5032869;28;20190;-76
2022/01/02 07:48:10;;;;;;;0.70;0.70;;;1.20;99.90;;;;;;5031842;28;20198;-75
2022/01/02 07:50:36;;;;;;;0.68;0.68;;;1.20;99.90;;;;;;5030230;28;20194;-75
2022/01/02 07:53:02;;;;;;;0.70;0.70;;;1.20;99.90;;;;;;5031623;28;20707;-76
2022/01/02 07:55:27;;;;;;;0.70;0.70;;;1.30;99.90;;;;;;5033606;28;20633;-77
2022/01/02 07:57:53;;;;;;;0.63;0.63;;;1.30;99.90;;;;;;5030342;28;20205;-76
2022/01/02 08:00:21;;;;;;;0.57;0.57;;;1.30;99.90;;;;;;5032391;28;21346;-74
2022/01/02 08:02:46;;;;;;;0.60;0.60;;;1.30;99.90;;;;;;5030096;28;20237;-75
2022/01/02 08:05:12;;;;;;;0.60;0.60;;;1.30;99.90;;;;;;5031991;28;20262;-76
2022/01/02 08:07:39;;;;;;;0.70;0.70;;;1.30;99.90;;;;;;5031882;28;20570;-76
2022/01/02 08:10:05;;;;;;;0.60;0.60;;;1.30;99.90;;;;;;5047287;28;20684;-74
2022/01/02 08:12:31;;;;;;;0.70;0.70;;;1.30;99.90;;;;;;5030746;28;20202;-76
2022/01/02 08:14:56;;;;;;;0.80;0.80;;;1.30;99.90;;;;;;5015832;28;20225;-76
2022/01/02 08:17:22;;;;;;;0.65;0.65;;;1.40;99.90;;;;;;5032214;28;20248;-76
2022/01/02 08:19:47;;;;;;;0.60;0.60;;;1.50;99.90;;;;;;5033182;28;20206;-76
2022/01/02 08:22:13;;;;;;;0.80;0.80;;;1.50;99.90;;;;;;5031980;28;20213;-76
2022/01/02 08:24:39;;;;;;;0.70;0.70;;;1.50;99.90;;;;;;5032126;28;20297;-76
2022/01/02 08:27:04;;;;;;;0.60;0.60;;;1.50;99.90;;;;;;5031358;28;20289;-76
2022/01/02 08:29:30;;;;;;;1.15;1.05;;;1.60;99.90;;;;;;5033469;28;20198;-76
2022/01/02 08:31:56;;;;;;;0.60;0.60;;;1.70;99.90;;;;;;5033464;28;20217;-76
2022/01/02 08:34:21;;;;;;;0.50;0.50;;;1.90;99.90;;;;;;5030305;28;20312;-76
2022/01/02 08:36:47;;;;;;;0.60;0.60;;;2.10;99.90;;;;;;5032643;28;20249;-76
2022/01/02 08:39:13;;;;;;;0.52;0.52;;;2.20;99.90;;;;;;5031972;28;20226;-76
2022/01/02 08:41:39;;;;;;;0.60;0.60;;;2.10;99.90;;;;;;5030906;28;20306;-76
2022/01/02 08:44:04;;;;;;;0.60;0.60;;;2.20;99.90;;;;;;5029690;28;20213;-76
2022/01/02 08:46:30;;;;;;;0.60;0.60;;;2.20;99.90;;;;;;5031936;28;20256;-76
2022/01/02 08:48:55;;;;;;;0.57;0.57;;;2.10;99.90;;;;;;5030661;28;20225;-75
2022/01/02 08:51:21;;;;;;;0.77;0.77;;;2.10;99.90;;;;;;5030553;28;20762;-77
2022/01/02 08:53:47;;;;;;;0.68;0.68;;;2.20;99.90;;;;;;5030948;28;20237;-76
2022/01/02 08:56:14;;;;;;;0.50;0.50;;;2.30;99.90;;;;;;5030222;28;20213;-76
2022/01/02 08:58:40;;;;;;;0.60;0.60;;;2.50;99.90;;;;;;5018401;28;20210;-76
2022/01/02 09:01:05;;;;;;;0.60;0.60;;;2.60;99.90;;;;;;5030615;28;20204;-76
2022/01/02 09:03:31;;;;;;;0.60;0.60;;;2.50;99.90;;;;;;5031552;28;20206;-75
2022/01/02 09:05:57;;;;;;;0.60;0.60;;;2.70;99.90;;;;;;5030957;28;20214;-77
2022/01/02 09:08:23;;;;;;;0.60;0.60;;;3.00;99.90;;;;;;5029253;28;20236;-76
2022/01/02 09:10:48;;;;;;;0.70;0.70;;;3.10;99.90;;;;;;5030309;28;20580;-75
2022/01/02 09:13:14;;;;;;;0.60;0.60;;;3.10;99.90;;;;;;5030663;28;20205;-74
2022/01/02 09:15:40;;;;;;;0.60;0.60;;;3.30;99.90;;;;;;5030139;28;20241;-74
2022/01/02 09:18:06;;;;;;;0.60;0.60;;;3.60;99.90;;;;;;5029614;28;20206;-75
2022/01/02 09:20:32;;;;;;;0.57;0.57;;;3.50;99.90;;;;;;5034204;28;20320;-77
2022/01/02 09:22:58;;;;;;;0.60;0.60;;;3.50;99.90;;;;;;5034332;28;20239;-76
2022/01/02 09:25:24;;;;;;;0.60;0.60;;;3.30;99.90;;;;;;5034727;28;20625;-76
2022/01/02 09:27:50;;;;;;;0.52;0.52;;;3.50;99.90;;;;;;5036034;28;20256;-76
2022/01/02 09:30:16;;;;;;;0.60;0.60;;;3.50;99.90;;;;;;5035577;28;20285;-75
2022/01/02 09:32:44;;;;;;;0.70;0.70;;;3.60;99.90;;;;;;5020594;28;20681;-75
2022/01/02 09:35:10;;;;;;;0.60;0.60;;;3.80;99.90;;;;;;5032606;28;20619;-75
2022/01/02 09:37:37;;;;;;;0.60;0.60;;;3.70;99.90;;;;;;5033968;28;20688;-75
2022/01/02 09:40:06;;;;;;;0.50;0.50;;;3.80;99.90;;;;;;5063739;28;20554;-75
2022/01/02 09:42:33;;;;;;;0.63;0.63;;;3.90;99.90;;;;;;5055956;28;20688;-75
2022/01/02 09:44:59;;;;;;;0.60;0.60;;;4.00;99.90;;;;;;5074114;28;20212;-76
2022/01/02 09:47:25;;;;;;;0.70;0.70;;;3.90;99.90;;;;;;5074706;28;20211;-75
2022/01/02 09:49:51;;;;;;;0.60;0.60;;;3.70;99.90;;;;;;5073782;28;20702;-75
2022/01/02 09:52:17;;;;;;;0.60;0.60;;;3.60;99.90;;;;;;5059998;28;20200;-75
2022/01/02 09:54:44;;;;;;;0.60;0.60;;;3.60;99.90;;;;;;5074673;28;20212;-75
2022/01/02 09:57:10;;;;;;;0.60;0.60;;;3.60;99.90;;;;;;5067243;28;20212;-74
2022/01/02 09:59:35;;;;;;;0.70;0.70;;;3.60;99.90;;;;;;5049312;28;20655;-75
2022/01/02 10:02:02;;;;;;;10.57;3.97;;;3.60;99.90;;;;;;5073315;28;20258;-74
2022/01/02 10:04:36;;;;;;;0.80;0.80;;;3.60;99.90;;;;;;5057434;28;20258;-75
2022/01/02 10:07:03;;;;;;;0.63;0.63;;;3.40;99.90;;;;;;5073575;28;20204;-76
2022/01/02 10:09:34;;;;;;;0.60;0.60;;;3.10;99.90;;;;;;5074387;28;20258;-74
2022/01/02 10:12:29;;;;;;;0.80;0.80;;;3.10;99.90;;;;;;5057525;28;20224;-75
2022/01/02 10:15:15;;;;;;;0.70;0.70;;;3.00;99.90;;;;;;5074340;28;20699;-74
2022/01/02 10:18:07;;;;;;;0.60;0.60;;;2.90;99.90;;;;;;5056228;28;20225;-74
2022/01/02 10:20:43;;;;;;;0.60;0.60;;;2.80;99.90;;;;;;5055082;28;20204;-74
2022/01/02 10:23:19;;;;;;;0.70;0.70;;;2.80;99.90;;;;;;5056177;28;20209;-75
2022/01/02 10:25:45;;;;;;;0.80;0.80;;;2.80;99.90;;;;;;5074781;28;20200;-75
2022/01/02 10:28:37;;;;;;;0.60;0.60;;;2.80;99.90;;;;;;5073097;28;20623;-75
2022/01/02 10:31:10;;;;;;;0.70;0.70;;;2.80;99.90;;;;;;5036460;28;20300;-74
2022/01/02 10:33:56;;;;;;;0.70;0.70;;;2.70;99.90;;;;;;5055667;28;20200;-77
2022/01/02 10:36:35;;;;;;;0.50;0.50;;;2.80;99.90;;;;;;5073313;28;20251;-74
2022/01/02 10:39:15;;;;;;;0.90;0.90;;;2.80;99.90;;;;;;5068837;28;20221;-75
2022/01/02 10:41:43;;;;;;;0.60;0.60;;;2.70;99.90;;;;;;5052639;28;20201;-75
2022/01/02 10:44:26;;;;;;;0.60;0.60;;;2.70;99.90;;;;;;5036585;28;20202;-74
2022/01/02 10:47:04;;;;;;;0.60;0.60;;;2.50;99.90;;;;;;5052670;28;20225;-76
2022/01/02 10:50:08;;;;;;;0.60;0.60;;;2.50;99.90;;;;;;5051935;28;20654;-75
2022/01/02 10:52:40;;;;;;;1.13;1.02;;;2.40;99.90;;;;;;5043067;28;20213;-74
2022/01/02 10:55:18;;;;;;;0.70;0.70;;;2.40;99.90;;;;;;5053637;28;20213;-76
2022/01/02 10:57:49;;;;;;;0.50;0.50;;;2.40;99.90;;;;;;5052272;28;20199;-75
2022/01/02 11:00:16;;;;;;;0.57;0.57;;;2.40;99.90;;;;;;5052379;28;20232;-77
2022/01/02 11:02:43;;;;;;;0.50;0.50;;;2.50;99.90;;;;;;5053225;28;20692;-76
2022/01/02 11:05:11;;;;;;;0.60;0.60;;;2.50;99.90;;;;;;5052502;28;20560;-75
2022/01/02 11:07:47;;;;;;;0.52;0.52;;;2.40;99.90;;;;;;5050724;28;20205;-76
2022/01/02 11:10:14;;;;;;;0.55;0.55;;;2.40;99.90;;;;;;5053449;28;20655;-76
2022/01/02 11:12:42;;;;;;;0.70;0.70;;;2.40;99.90;;;;;;5052687;28;20220;-76
2022/01/02 11:15:13;;;;;;;0.60;0.60;;;2.40;99.90;;;;;;5053286;28;20212;-76
2022/01/02 11:17:39;;;;;;;0.65;0.65;;;2.40;99.90;;;;;;5051916;28;20201;-75
2022/01/02 11:20:07;;;;;;;0.50;0.50;;;2.40;99.90;;;;;;5051229;28;20243;-76
2022/01/02 11:22:41;;;;;;;0.70;0.70;;;2.50;99.90;;;;;;5035996;28;20190;-75
2022/01/02 11:25:39;;;;;;;0.70;0.70;;;2.70;99.90;;;;;;5035100;28;20194;-75
2022/01/02 11:28:13;;;;;;;0.60;0.60;;;2.70;99.90;;;;;;5003487;28;20217;-75
2022/01/02 11:30:41;;;;;;;0.50;0.50;;;2.70;99.90;;;;;;5051245;28;20651;-75
2022/01/02 11:33:06;;;;;;;0.70;0.70;;;2.70;99.90;;;;;;5051749;28;20281;-76
2022/01/02 11:35:35;;;;;;;0.60;0.60;;;2.60;99.90;;;;;;5051736;28;20567;-74
2022/01/02 11:38:02;;;;;;;1.13;1.10;;;2.60;99.90;;;;;;5050440;28;20201;-74
2022/01/02 11:40:51;;;;;;;0.70;0.70;;;2.60;99.90;;;;;;5033467;28;20255;-74
2022/01/02 11:43:35;;;;;;;0.77;0.77;;;2.60;99.90;;;;;;5016064;28;20298;-75
2022/01/02 11:46:20;;;;;;;0.63;0.63;;;2.60;99.90;;;;;;5031760;28;20321;-75
2022/01/02 11:49:13;;;;;;;0.60;0.60;;;2.60;99.90;;;;;;5033148;28;20215;-76
2022/01/02 11:52:06;;;;;;;0.60;0.60;;;2.80;99.90;;;;;;5031517;28;20206;-75
2022/01/02 11:54:32;;;;;;;0.60;0.60;;;2.80;99.90;;;;;;5031588;28;20291;-75
2022/01/02 11:57:02;;;;;;;0.60;0.60;;;2.80;99.90;;;;;;5026469;28;20212;-76
2022/01/02 11:59:40;;;;;;;0.60;0.60;;;2.80;99.90;;;;;;5023503;28;20202;-76
2022/01/02 12:02:18;;;;;;;0.60;0.60;;;2.70;99.90;;;;;;5032382;28;20726;-76
2022/01/02 12:07:33;;;;;;;0.60;0.60;;;2.60;99.90;;;;;;5032445;28;20217;-76
2022/01/02 12:10:17;;;;;;;0.80;0.80;;;2.50;99.90;;;;;;5031152;28;20208;-76
2022/01/02 12:13:23;;;;;;;0.60;0.60;;;2.50;99.90;;;;;;5031085;28;20260;-76
2022/01/02 12:15:51;;;;;;;0.60;0.60;;;2.50;99.90;;;;;;5030984;28;20739;-76
2022/01/02 12:18:24;;;;;;;0.60;0.60;;;2.50;99.90;;;;;;5031933;28;20206;-75
2022/01/02 12:20:50;;;;;;;0.63;0.63;;;2.50;99.90;;;;;;5031061;28;20217;-76
2022/01/02 12:23:34;;;;;;;0.70;0.70;;;2.60;99.90;;;;;;5030930;28;20202;-76
2022/01/02 12:25:59;;;;;;;0.70;0.70;;;2.60;99.90;;;;;;5029670;28;20292;-76
2022/01/02 12:28:28;;;;;;;0.60;0.60;;;2.60;99.90;;;;;;5031768;28;20289;-76
2022/01/02 12:30:56;;;;;;;0.65;0.65;;;2.60;99.90;;;;;;5032024;28;20194;-76
2022/01/02 12:33:26;;;;;;;0.52;0.52;;;2.70;99.90;;;;;;5030686;28;20248;-76
2022/01/02 12:35:52;;;;;;;0.80;0.80;;;2.70;99.90;;;;;;5031827;28;20260;-76
2022/01/02 12:38:17;;;;;;;0.80;0.80;;;2.60;99.90;;;;;;5030891;28;20615;-76
2022/01/02 12:40:43;;;;;;;0.70;0.70;;;2.60;99.90;;;;;;5070922;28;20320;-75
2022/01/02 12:43:10;;;;;;;0.60;0.60;;;2.60;99.90;;;;;;5071612;28;20193;-75
2022/01/02 12:45:36;;;;;;;0.60;0.60;;;2.70;99.90;;;;;;5071450;28;20700;-74
2022/01/02 12:48:02;;;;;;;0.75;0.75;;;2.70;99.90;;;;;;5070607;28;20193;-74
2022/01/02 12:50:30;;;;;;;0.60;0.60;;;2.80;99.90;;;;;;5070179;28;20201;-74
2022/01/02 12:52:57;;;;;;;0.60;0.60;;;2.80;99.90;;;;;;5070080;28;20226;-73
2022/01/02 12:55:25;;;;;;;0.60;0.60;;;2.70;99.90;;;;;;5054581;28;20209;-73
2022/01/02 12:58:00;;;;;;;0.70;0.70;;;2.60;99.90;;;;;;5046848;28;20721;-73
2022/01/02 13:00:26;;;;;;;0.60;0.60;;;2.70;99.90;;;;;;5071571;28;20581;-74
2022/01/02 13:02:53;;;;;;;2.05;1.25;;;2.70;99.90;;;;;;5052549;28;20197;-76
2022/01/02 13:05:18;;;;;;;0.60;0.60;;;2.70;99.90;;;;;;5052389;28;20201;-76
2022/01/02 13:07:46;;;;;;;0.82;0.82;;;2.60;99.90;;;;;;5071878;28;20624;-76
2022/01/02 13:10:15;;;;;;;0.60;0.60;;;2.60;99.90;;;;;;5069952;28;20265;-77
2022/01/02 13:12:44;;;;;;;0.50;0.50;;;2.50;99.90;;;;;;5070482;28;20200;-76
2022/01/02 13:15:12;;;;;;;0.60;0.60;;;2.50;99.90;;;;;;5071682;28;20205;-76
2022/01/02 13:17:42;;;;;;;0.80;0.80;;;2.40;99.90;;;;;;5070611;28;20609;-75